sensor_id;sensor_type;location;lat;lon;timestamp;P1;durP1;ratioP1;P2;durP2;ratioP2
21527;SDS011;10925;49.102;-0.370;2023-04-01T00:00:56;23.73;;;3.70;;
21527;SDS011;10925;49.102;-0.370;2023-04-01T00:03:23;27.27;;;3.50;;
21527;SDS011;10925;49.102;-0.370;2023-04-01T00:05:50;35.72;;;4.03;;
21527;SDS011;10925;49.102;-0.370;2023-04-01T00:08:17;30.95;;;4.20;;
21527;SDS011;10925;49.102;-0.370;2023-04-01T00:10:43;19.30;;;3.00;;
21527;SDS011;10925;49.102;-0.370;2023-04-01T00:13:10;24.73;;;3.80;;
21527;SDS011;10925;49.102;-0.370;2023-04-01T00:15:37;18.55;;;2.90;;
21527;SDS011;10925;49.102;-0.370;2023-04-01T00:18:05;27.08;;;3.10;;
21527;SDS011;10925;49.102;-0.370;2023-04-01T00:20:33;17.65;;;2.78;;
21527;SDS011;10925;49.102;-0.370;2023-04-01T00:22:59;31.17;;;3.63;;
21527;SDS011;10925;49.102;-0.370;2023-04-01T00:25:26;19.85;;;3.50;;
21527;SDS011;10925;49.102;-0.370;2023-04-01T00:27:54;19.70;;;2.80;;
21527;SDS011;10925;49.102;-0.370;2023-04-01T00:30:21;21.52;;;3.20;;
21527;SDS011;10925;49.102;-0.370;2023-04-01T00:32:51;26.25;;;4.80;;
21527;SDS011;10925;49.102;-0.370;2023-04-01T00:35:18;27.55;;;3.60;;
21527;SDS011;10925;49.102;-0.370;2023-04-01T00:37:45;19.05;;;2.83;;
21527;SDS011;10925;49.102;-0.370;2023-04-01T00:40:22;18.20;;;3.33;;
21527;SDS011;10925;49.102;-0.370;2023-04-01T00:42:48;27.10;;;2.95;;
21527;SDS011;10925;49.102;-0.370;2023-04-01T00:47:51;25.95;;;3.55;;
21527;SDS011;10925;49.102;-0.370;2023-04-01T00:50:18;26.63;;;3.25;;
21527;SDS011;10925;49.102;-0.370;2023-04-01T00:52:45;15.50;;;2.25;;
21527;SDS011;10925;49.102;-0.370;2023-04-01T00:55:11;18.50;;;2.50;;
21527;SDS011;10925;49.102;-0.370;2023-04-01T00:57:38;18.20;;;2.72;;
21527;SDS011;10925;49.102;-0.370;2023-04-01T01:00:06;17.40;;;2.33;;
21527;SDS011;10925;49.102;-0.370;2023-04-01T01:02:34;22.58;;;2.80;;
21527;SDS011;10925;49.102;-0.370;2023-04-01T01:05:02;13.25;;;3.13;;
21527;SDS011;10925;49.102;-0.370;2023-04-01T01:10:13;24.25;;;2.88;;
21527;SDS011;10925;49.102;-0.370;2023-04-01T01:15:21;23.40;;;3.20;;
21527;SDS011;10925;49.102;-0.370;2023-04-01T01:17:58;21.65;;;2.50;;
21527;SDS011;10925;49.102;-0.370;2023-04-01T01:36:04;20.92;;;3.08;;
21527;SDS011;10925;49.102;-0.370;2023-04-01T01:38:32;24.75;;;3.42;;
21527;SDS011;10925;49.102;-0.370;2023-04-01T01:41:04;26.55;;;3.55;;
21527;SDS011;10925;49.102;-0.370;2023-04-01T01:43:33;26.92;;;3.97;;
21527;SDS011;10925;49.102;-0.370;2023-04-01T01:46:02;24.60;;;2.92;;
21527;SDS011;10925;49.102;-0.370;2023-04-01T01:48:31;23.38;;;3.67;;
21527;SDS011;10925;49.102;-0.370;2023-04-01T01:50:59;19.00;;;2.50;;
21527;SDS011;10925;49.102;-0.370;2023-04-01T01:53:26;23.27;;;3.17;;
21527;SDS011;10925;49.102;-0.370;2023-04-01T01:55:53;24.02;;;2.78;;
21527;SDS011;10925;49.102;-0.370;2023-04-01T01:58:24;17.38;;;2.75;;
21527;SDS011;10925;49.102;-0.370;2023-04-01T02:00:51;23.98;;;2.80;;
21527;SDS011;10925;49.102;-0.370;2023-04-01T02:03:18;21.75;;;3.35;;
21527;SDS011;10925;49.102;-0.370;2023-04-01T02:05:45;25.77;;;4.03;;
21527;SDS011;10925;49.102;-0.370;2023-04-01T02:08:15;20.15;;;2.92;;
21527;SDS011;10925;49.102;-0.370;2023-04-01T02:10:45;23.40;;;2.92;;
21527;SDS011;10925;49.102;-0.370;2023-04-01T02:13:18;27.98;;;3.28;;
21527;SDS011;10925;49.102;-0.370;2023-04-01T02:15:48;21.77;;;3.20;;
21527;SDS011;10925;49.102;-0.370;2023-04-01T02:18:14;23.58;;;3.17;;
21527;SDS011;10925;49.102;-0.370;2023-04-01T02:20:42;17.13;;;2.22;;
21527;SDS011;10925;49.102;-0.370;2023-04-01T02:23:09;14.98;;;2.58;;
21527;SDS011;10925;49.102;-0.370;2023-04-01T02:25:37;19.00;;;2.65;;
21527;SDS011;10925;49.102;-0.370;2023-04-01T02:28:06;16.60;;;2.50;;
21527;SDS011;10925;49.102;-0.370;2023-04-01T02:30:34;17.33;;;2.85;;
21527;SDS011;10925;49.102;-0.370;2023-04-01T02:33:02;21.58;;;3.20;;
21527;SDS011;10925;49.102;-0.370;2023-04-01T02:35:29;21.70;;;2.80;;
21527;SDS011;10925;49.102;-0.370;2023-04-01T02:37:56;20.52;;;2.60;;
21527;SDS011;10925;49.102;-0.370;2023-04-01T02:40:23;20.67;;;4.65;;
21527;SDS011;10925;49.102;-0.370;2023-04-01T02:42:50;17.80;;;2.88;;
21527;SDS011;10925;49.102;-0.370;2023-04-01T02:45:17;20.52;;;2.88;;
21527;SDS011;10925;49.102;-0.370;2023-04-01T02:47:44;21.42;;;3.05;;
21527;SDS011;10925;49.102;-0.370;2023-04-01T02:50:11;18.60;;;2.83;;
21527;SDS011;10925;49.102;-0.370;2023-04-01T02:52:37;17.33;;;2.58;;
21527;SDS011;10925;49.102;-0.370;2023-04-01T02:55:05;25.00;;;3.15;;
21527;SDS011;10925;49.102;-0.370;2023-04-01T02:57:32;19.52;;;2.90;;
21527;SDS011;10925;49.102;-0.370;2023-04-01T02:59:59;15.85;;;2.13;;
21527;SDS011;10925;49.102;-0.370;2023-04-01T03:02:24;15.23;;;2.47;;
21527;SDS011;10925;49.102;-0.370;2023-04-01T03:04:50;19.38;;;2.97;;
21527;SDS011;10925;49.102;-0.370;2023-04-01T03:07:16;20.42;;;2.75;;
21527;SDS011;10925;49.102;-0.370;2023-04-01T03:09:42;19.92;;;2.88;;
21527;SDS011;10925;49.102;-0.370;2023-04-01T03:12:09;24.10;;;2.45;;
21527;SDS011;10925;49.102;-0.370;2023-04-01T03:14:36;18.75;;;2.40;;
21527;SDS011;10925;49.102;-0.370;2023-04-01T03:17:03;19.92;;;3.17;;
21527;SDS011;10925;49.102;-0.370;2023-04-01T03:19:29;19.48;;;2.85;;
21527;SDS011;10925;49.102;-0.370;2023-04-01T03:21:56;19.08;;;2.97;;
21527;SDS011;10925;49.102;-0.370;2023-04-01T03:24:21;21.35;;;3.10;;
21527;SDS011;10925;49.102;-0.370;2023-04-01T03:26:47;19.13;;;4.00;;
21527;SDS011;10925;49.102;-0.370;2023-04-01T03:29:14;19.35;;;2.60;;
21527;SDS011;10925;49.102;-0.370;2023-04-01T03:31:41;19.33;;;2.70;;
21527;SDS011;10925;49.102;-0.370;2023-04-01T03:34:08;18.38;;;3.03;;
21527;SDS011;10925;49.102;-0.370;2023-04-01T03:36:35;12.98;;;2.38;;
21527;SDS011;10925;49.102;-0.370;2023-04-01T03:39:02;22.73;;;3.35;;
21527;SDS011;10925;49.102;-0.370;2023-04-01T03:41:38;20.23;;;2.80;;
21527;SDS011;10925;49.102;-0.370;2023-04-01T03:44:06;22.25;;;3.05;;
21527;SDS011;10925;49.102;-0.370;2023-04-01T03:46:33;14.60;;;2.55;;
21527;SDS011;10925;49.102;-0.370;2023-04-01T03:48:59;21.85;;;3.38;;
21527;SDS011;10925;49.102;-0.370;2023-04-01T03:51:41;14.73;;;2.35;;
21527;SDS011;10925;49.102;-0.370;2023-04-01T03:54:08;15.02;;;2.42;;
21527;SDS011;10925;49.102;-0.370;2023-04-01T03:56:36;19.98;;;2.47;;
21527;SDS011;10925;49.102;-0.370;2023-04-01T03:59:03;15.80;;;2.45;;
21527;SDS011;10925;49.102;-0.370;2023-04-01T04:01:30;14.10;;;2.05;;
21527;SDS011;10925;49.102;-0.370;2023-04-01T04:03:57;17.88;;;2.67;;
21527;SDS011;10925;49.102;-0.370;2023-04-01T04:06:26;12.82;;;2.40;;
21527;SDS011;10925;49.102;-0.370;2023-04-01T04:08:53;16.95;;;2.90;;
21527;SDS011;10925;49.102;-0.370;2023-04-01T04:11:20;17.48;;;3.13;;
21527;SDS011;10925;49.102;-0.370;2023-04-01T04:13:49;26.98;;;3.22;;
21527;SDS011;10925;49.102;-0.370;2023-04-01T04:16:16;17.85;;;2.67;;
21527;SDS011;10925;49.102;-0.370;2023-04-01T04:18:47;15.80;;;2.50;;
21527;SDS011;10925;49.102;-0.370;2023-04-01T04:21:14;22.13;;;3.17;;
21527;SDS011;10925;49.102;-0.370;2023-04-01T04:23:41;22.83;;;3.72;;
21527;SDS011;10925;49.102;-0.370;2023-04-01T04:26:08;20.85;;;2.72;;
21527;SDS011;10925;49.102;-0.370;2023-04-01T04:28:34;19.65;;;2.65;;
21527;SDS011;10925;49.102;-0.370;2023-04-01T04:30:59;20.83;;;2.75;;
21527;SDS011;10925;49.102;-0.370;2023-04-01T04:33:27;24.65;;;2.92;;
21527;SDS011;10925;49.102;-0.370;2023-04-01T04:35:54;23.05;;;3.78;;
21527;SDS011;10925;49.102;-0.370;2023-04-01T04:38:22;22.30;;;3.55;;
21527;SDS011;10925;49.102;-0.370;2023-04-01T04:40:47;24.90;;;3.65;;
21527;SDS011;10925;49.102;-0.370;2023-04-01T04:43:14;19.23;;;3.00;;
21527;SDS011;10925;49.102;-0.370;2023-04-01T04:45:42;22.67;;;2.83;;
21527;SDS011;10925;49.102;-0.370;2023-04-01T04:48:10;21.25;;;3.90;;
21527;SDS011;10925;49.102;-0.370;2023-04-01T04:50:39;17.42;;;2.65;;
21527;SDS011;10925;49.102;-0.370;2023-04-01T04:53:08;17.77;;;3.00;;
21527;SDS011;10925;49.102;-0.370;2023-04-01T04:55:35;16.70;;;2.78;;
21527;SDS011;10925;49.102;-0.370;2023-04-01T04:58:20;26.13;;;3.55;;
21527;SDS011;10925;49.102;-0.370;2023-04-01T05:00:46;22.23;;;3.53;;
21527;SDS011;10925;49.102;-0.370;2023-04-01T05:03:20;29.33;;;3.35;;
21527;SDS011;10925;49.102;-0.370;2023-04-01T05:05:50;22.08;;;3.17;;
21527;SDS011;10925;49.102;-0.370;2023-04-01T05:08:17;19.80;;;2.50;;
21527;SDS011;10925;49.102;-0.370;2023-04-01T05:10:45;20.55;;;3.10;;
21527;SDS011;10925;49.102;-0.370;2023-04-01T05:13:12;21.98;;;3.00;;
21527;SDS011;10925;49.102;-0.370;2023-04-01T05:15:40;15.55;;;2.92;;
21527;SDS011;10925;49.102;-0.370;2023-04-01T05:18:07;26.40;;;2.90;;
21527;SDS011;10925;49.102;-0.370;2023-04-01T05:20:32;18.08;;;2.92;;
21527;SDS011;10925;49.102;-0.370;2023-04-01T05:22:58;26.88;;;3.53;;
21527;SDS011;10925;49.102;-0.370;2023-04-01T05:32:40;26.83;;;3.60;;
21527;SDS011;10925;49.102;-0.370;2023-04-01T05:35:07;19.67;;;2.88;;
21527;SDS011;10925;49.102;-0.370;2023-04-01T05:37:34;21.58;;;4.35;;
21527;SDS011;10925;49.102;-0.370;2023-04-01T05:40:03;23.13;;;3.00;;
21527;SDS011;10925;49.102;-0.370;2023-04-01T05:42:30;24.77;;;3.30;;
21527;SDS011;10925;49.102;-0.370;2023-04-01T05:44:56;22.83;;;3.17;;
21527;SDS011;10925;49.102;-0.370;2023-04-01T05:47:23;20.85;;;2.95;;
21527;SDS011;10925;49.102;-0.370;2023-04-01T05:49:50;25.58;;;3.63;;
21527;SDS011;10925;49.102;-0.370;2023-04-01T05:52:32;27.73;;;3.90;;
21527;SDS011;10925;49.102;-0.370;2023-04-01T05:54:57;17.60;;;3.33;;
21527;SDS011;10925;49.102;-0.370;2023-04-01T05:57:26;22.88;;;2.90;;
21527;SDS011;10925;49.102;-0.370;2023-04-01T05:59:53;18.92;;;3.47;;
21527;SDS011;10925;49.102;-0.370;2023-04-01T06:02:19;20.27;;;2.92;;
21527;SDS011;10925;49.102;-0.370;2023-04-01T06:04:46;22.42;;;3.15;;
21527;SDS011;10925;49.102;-0.370;2023-04-01T06:07:13;26.42;;;3.40;;
21527;SDS011;10925;49.102;-0.370;2023-04-01T06:09:41;23.00;;;3.30;;
21527;SDS011;10925;49.102;-0.370;2023-04-01T06:14:52;26.95;;;3.97;;
21527;SDS011;10925;49.102;-0.370;2023-04-01T06:17:35;25.42;;;3.20;;
21527;SDS011;10925;49.102;-0.370;2023-04-01T06:22:43;25.70;;;4.18;;
21527;SDS011;10925;49.102;-0.370;2023-04-01T06:30:24;18.92;;;3.75;;
21527;SDS011;10925;49.102;-0.370;2023-04-01T06:38:13;24.80;;;3.05;;
21527;SDS011;10925;49.102;-0.370;2023-04-01T06:54:25;19.30;;;2.85;;
21527;SDS011;10925;49.102;-0.370;2023-04-01T06:56:53;17.52;;;3.50;;
21527;SDS011;10925;49.102;-0.370;2023-04-01T06:59:25;13.25;;;2.60;;
21527;SDS011;10925;49.102;-0.370;2023-04-01T07:01:57;21.30;;;3.55;;
21527;SDS011;10925;49.102;-0.370;2023-04-01T07:04:26;16.83;;;2.38;;
21527;SDS011;10925;49.102;-0.370;2023-04-01T07:06:54;17.25;;;2.80;;
21527;SDS011;10925;49.102;-0.370;2023-04-01T07:09:24;24.98;;;4.15;;
21527;SDS011;10925;49.102;-0.370;2023-04-01T07:12:15;25.95;;;3.10;;
21527;SDS011;10925;49.102;-0.370;2023-04-01T07:14:42;23.60;;;2.80;;
21527;SDS011;10925;49.102;-0.370;2023-04-01T07:17:23;17.25;;;2.83;;
21527;SDS011;10925;49.102;-0.370;2023-04-01T07:19:56;19.50;;;2.70;;
21527;SDS011;10925;49.102;-0.370;2023-04-01T07:24:57;12.55;;;2.35;;
21527;SDS011;10925;49.102;-0.370;2023-04-01T07:27:26;16.65;;;2.97;;
21527;SDS011;10925;49.102;-0.370;2023-04-01T07:29:55;17.15;;;2.58;;
21527;SDS011;10925;49.102;-0.370;2023-04-01T07:35:01;19.55;;;2.00;;
21527;SDS011;10925;49.102;-0.370;2023-04-01T07:40:01;16.70;;;2.72;;
21527;SDS011;10925;49.102;-0.370;2023-04-01T07:50:27;12.40;;;2.20;;
21527;SDS011;10925;49.102;-0.370;2023-04-01T07:55:27;11.60;;;2.25;;
21527;SDS011;10925;49.102;-0.370;2023-04-01T07:58:08;10.15;;;2.22;;
21527;SDS011;10925;49.102;-0.370;2023-04-01T08:14:09;8.90;;;1.58;;
21527;SDS011;10925;49.102;-0.370;2023-04-01T08:16:34;17.25;;;2.63;;
21527;SDS011;10925;49.102;-0.370;2023-04-01T08:19:09;14.10;;;2.10;;
21527;SDS011;10925;49.102;-0.370;2023-04-01T08:21:42;13.60;;;2.40;;
21527;SDS011;10925;49.102;-0.370;2023-04-01T08:24:16;11.70;;;1.95;;
21527;SDS011;10925;49.102;-0.370;2023-04-01T08:26:49;13.32;;;1.90;;
21527;SDS011;10925;49.102;-0.370;2023-04-01T08:29:21;16.65;;;1.85;;
21527;SDS011;10925;49.102;-0.370;2023-04-01T08:31:55;11.50;;;1.67;;
21527;SDS011;10925;49.102;-0.370;2023-04-01T08:34:25;21.15;;;2.20;;
21527;SDS011;10925;49.102;-0.370;2023-04-01T08:37:04;16.52;;;2.20;;
21527;SDS011;10925;49.102;-0.370;2023-04-01T08:39:37;14.93;;;2.13;;
21527;SDS011;10925;49.102;-0.370;2023-04-01T08:47:29;14.45;;;2.30;;
21527;SDS011;10925;49.102;-0.370;2023-04-01T09:00:44;13.25;;;2.38;;
21527;SDS011;10925;49.102;-0.370;2023-04-01T09:24:09;12.30;;;2.17;;
21527;SDS011;10925;49.102;-0.370;2023-04-01T09:26:57;13.57;;;2.00;;
21527;SDS011;10925;49.102;-0.370;2023-04-01T09:32:18;10.25;;;2.30;;
21527;SDS011;10925;49.102;-0.370;2023-04-01T09:40:18;14.40;;;2.42;;
21527;SDS011;10925;49.102;-0.370;2023-04-01T09:48:36;11.98;;;2.75;;
21527;SDS011;10925;49.102;-0.370;2023-04-01T09:51:06;9.43;;;2.17;;
21527;SDS011;10925;49.102;-0.370;2023-04-01T10:09:22;13.10;;;1.80;;
21527;SDS011;10925;49.102;-0.370;2023-04-01T10:20:20;6.97;;;1.63;;
21527;SDS011;10925;49.102;-0.370;2023-04-01T10:23:02;7.53;;;1.60;;
21527;SDS011;10925;49.102;-0.370;2023-04-01T10:36:41;6.55;;;1.70;;
21527;SDS011;10925;49.102;-0.370;2023-04-01T10:44:20;7.32;;;1.70;;
21527;SDS011;10925;49.102;-0.370;2023-04-01T10:54:53;5.57;;;1.35;;
21527;SDS011;10925;49.102;-0.370;2023-04-01T10:58:08;10.35;;;2.10;;
21527;SDS011;10925;49.102;-0.370;2023-04-01T11:11:21;10.25;;;1.50;;
21527;SDS011;10925;49.102;-0.370;2023-04-01T11:18:57;5.85;;;1.20;;
21527;SDS011;10925;49.102;-0.370;2023-04-01T11:24:13;16.05;;;2.55;;
21527;SDS011;10925;49.102;-0.370;2023-04-01T11:37:20;8.60;;;1.50;;
21527;SDS011;10925;49.102;-0.370;2023-04-01T11:43:01;9.20;;;1.65;;
21527;SDS011;10925;49.102;-0.370;2023-04-01T11:51:20;7.88;;;1.73;;
21527;SDS011;10925;49.102;-0.370;2023-04-01T11:53:50;9.75;;;1.98;;
21527;SDS011;10925;49.102;-0.370;2023-04-01T12:02:03;10.93;;;1.80;;
21527;SDS011;10925;49.102;-0.370;2023-04-01T12:04:44;12.57;;;1.73;;
21527;SDS011;10925;49.102;-0.370;2023-04-01T12:12:32;9.38;;;1.55;;
21527;SDS011;10925;49.102;-0.370;2023-04-01T12:15:22;8.23;;;1.15;;
21527;SDS011;10925;49.102;-0.370;2023-04-01T12:20:45;10.00;;;2.17;;
21527;SDS011;10925;49.102;-0.370;2023-04-01T12:23:19;5.00;;;1.15;;
21527;SDS011;10925;49.102;-0.370;2023-04-01T12:25:57;7.85;;;1.20;;
21527;SDS011;10925;49.102;-0.370;2023-04-01T12:28:41;8.10;;;1.60;;
21527;SDS011;10925;49.102;-0.370;2023-04-01T12:31:14;5.10;;;1.50;;
21527;SDS011;10925;49.102;-0.370;2023-04-01T12:56:40;8.63;;;1.30;;
21527;SDS011;10925;49.102;-0.370;2023-04-01T13:07:12;5.68;;;1.23;;
21527;SDS011;10925;49.102;-0.370;2023-04-01T13:10:00;6.03;;;1.10;;
21527;SDS011;10925;49.102;-0.370;2023-04-01T13:25:26;9.75;;;1.88;;
21527;SDS011;10925;49.102;-0.370;2023-04-01T13:27:58;6.18;;;1.23;;
21527;SDS011;10925;49.102;-0.370;2023-04-01T13:45:42;8.02;;;1.40;;
21527;SDS011;10925;49.102;-0.370;2023-04-01T13:51:03;17.33;;;1.95;;
21527;SDS011;10925;49.102;-0.370;2023-04-01T13:53:40;10.50;;;1.80;;
21527;SDS011;10925;49.102;-0.370;2023-04-01T14:01:17;11.27;;;1.90;;
21527;SDS011;10925;49.102;-0.370;2023-04-01T14:14:02;5.57;;;1.05;;
21527;SDS011;10925;49.102;-0.370;2023-04-01T14:22:17;5.32;;;1.25;;
21527;SDS011;10925;49.102;-0.370;2023-04-01T14:27:44;3.97;;;0.75;;
21527;SDS011;10925;49.102;-0.370;2023-04-01T14:30:15;3.60;;;0.80;;
21527;SDS011;10925;49.102;-0.370;2023-04-01T14:46:37;8.15;;;1.42;;
21527;SDS011;10925;49.102;-0.370;2023-04-01T14:51:55;6.45;;;1.42;;
21527;SDS011;10925;49.102;-0.370;2023-04-01T14:54:32;5.72;;;1.20;;
21527;SDS011;10925;49.102;-0.370;2023-04-01T14:59:32;16.63;;;2.65;;
21527;SDS011;10925;49.102;-0.370;2023-04-01T15:09:40;7.07;;;1.65;;
21527;SDS011;10925;49.102;-0.370;2023-04-01T15:14:59;2.53;;;0.88;;
21527;SDS011;10925;49.102;-0.370;2023-04-01T15:20:04;6.72;;;1.20;;
21527;SDS011;10925;49.102;-0.370;2023-04-01T15:28:16;3.72;;;0.88;;
21527;SDS011;10925;49.102;-0.370;2023-04-01T15:30:49;2.80;;;0.93;;
21527;SDS011;10925;49.102;-0.370;2023-04-01T15:39:02;3.35;;;0.90;;
21527;SDS011;10925;49.102;-0.370;2023-04-01T15:43:41;5.18;;;1.25;;
21527;SDS011;10925;49.102;-0.370;2023-04-01T15:51:21;13.52;;;5.70;;
21527;SDS011;10925;49.102;-0.370;2023-04-01T15:54:20;13.20;;;4.05;;
21527;SDS011;10925;49.102;-0.370;2023-04-01T15:59:50;10.43;;;2.90;;
21527;SDS011;10925;49.102;-0.370;2023-04-01T16:23:02;8.85;;;1.50;;
21527;SDS011;10925;49.102;-0.370;2023-04-01T16:25:41;7.43;;;1.95;;
21527;SDS011;10925;49.102;-0.370;2023-04-01T16:31:30;8.55;;;1.85;;
21527;SDS011;10925;49.102;-0.370;2023-04-01T16:41:20;6.97;;;1.20;;
21527;SDS011;10925;49.102;-0.370;2023-04-01T16:44:31;6.78;;;1.40;;
21527;SDS011;10925;49.102;-0.370;2023-04-01T16:47:06;9.70;;;1.42;;
21527;SDS011;10925;49.102;-0.370;2023-04-01T16:51:54;7.20;;;1.80;;
21527;SDS011;10925;49.102;-0.370;2023-04-01T16:54:36;11.07;;;1.80;;
21527;SDS011;10925;49.102;-0.370;2023-04-01T17:02:20;11.18;;;2.13;;
21527;SDS011;10925;49.102;-0.370;2023-04-01T17:04:53;7.40;;;2.40;;
21527;SDS011;10925;49.102;-0.370;2023-04-01T17:10:02;11.35;;;2.25;;
21527;SDS011;10925;49.102;-0.370;2023-04-01T17:12:33;13.40;;;2.65;;
21527;SDS011;10925;49.102;-0.370;2023-04-01T17:22:42;11.00;;;3.00;;
21527;SDS011;10925;49.102;-0.370;2023-04-01T17:27:50;16.95;;;4.53;;
21527;SDS011;10925;49.102;-0.370;2023-04-01T17:30:19;11.52;;;4.63;;
21527;SDS011;10925;49.102;-0.370;2023-04-01T17:35:21;11.63;;;2.20;;
21527;SDS011;10925;49.102;-0.370;2023-04-01T17:46:08;12.90;;;4.22;;
21527;SDS011;10925;49.102;-0.370;2023-04-01T17:56:20;25.15;;;6.45;;
21527;SDS011;10925;49.102;-0.370;2023-04-01T17:58:56;32.38;;;7.07;;
21527;SDS011;10925;49.102;-0.370;2023-04-01T18:01:26;14.13;;;4.60;;
21527;SDS011;10925;49.102;-0.370;2023-04-01T18:04:07;19.63;;;5.43;;
21527;SDS011;10925;49.102;-0.370;2023-04-01T18:19:24;19.05;;;8.05;;
21527;SDS011;10925;49.102;-0.370;2023-04-01T18:21:53;16.45;;;4.25;;
21527;SDS011;10925;49.102;-0.370;2023-04-01T18:27:24;18.65;;;4.45;;
21527;SDS011;10925;49.102;-0.370;2023-04-01T18:29:54;17.95;;;3.63;;
21527;SDS011;10925;49.102;-0.370;2023-04-01T18:35:17;12.85;;;3.53;;
21527;SDS011;10925;49.102;-0.370;2023-04-01T18:52:54;20.60;;;6.45;;
21527;SDS011;10925;49.102;-0.370;2023-04-01T19:00:44;18.23;;;2.83;;
21527;SDS011;10925;49.102;-0.370;2023-04-01T19:03:12;13.75;;;2.58;;
21527;SDS011;10925;49.102;-0.370;2023-04-01T19:05:41;13.13;;;2.88;;
21527;SDS011;10925;49.102;-0.370;2023-04-01T19:13:14;13.05;;;2.95;;
21527;SDS011;10925;49.102;-0.370;2023-04-01T19:15:58;18.85;;;4.25;;
21527;SDS011;10925;49.102;-0.370;2023-04-01T19:21:21;18.92;;;3.88;;
21527;SDS011;10925;49.102;-0.370;2023-04-01T19:28:59;17.52;;;5.20;;
21527;SDS011;10925;49.102;-0.370;2023-04-01T19:36:38;11.70;;;2.70;;
21527;SDS011;10925;49.102;-0.370;2023-04-01T19:41:46;19.38;;;3.95;;
21527;SDS011;10925;49.102;-0.370;2023-04-01T19:47:07;17.80;;;4.13;;
21527;SDS011;10925;49.102;-0.370;2023-04-01T19:49:43;17.75;;;5.60;;
21527;SDS011;10925;49.102;-0.370;2023-04-01T19:54:53;13.38;;;4.00;;
21527;SDS011;10925;49.102;-0.370;2023-04-01T19:57:27;22.83;;;4.25;;
21527;SDS011;10925;49.102;-0.370;2023-04-01T20:02:33;11.88;;;3.90;;
21527;SDS011;10925;49.102;-0.370;2023-04-01T20:05:15;12.98;;;5.57;;
21527;SDS011;10925;49.102;-0.370;2023-04-01T20:07:47;16.00;;;4.05;;
21527;SDS011;10925;49.102;-0.370;2023-04-01T20:10:19;14.32;;;4.97;;
21527;SDS011;10925;49.102;-0.370;2023-04-01T20:15:31;12.20;;;3.83;;
21527;SDS011;10925;49.102;-0.370;2023-04-01T20:17:59;9.82;;;3.30;;
21527;SDS011;10925;49.102;-0.370;2023-04-01T20:20:27;19.15;;;4.70;;
21527;SDS011;10925;49.102;-0.370;2023-04-01T20:25:48;16.83;;;3.45;;
21527;SDS011;10925;49.102;-0.370;2023-04-01T20:30:55;10.25;;;2.90;;
21527;SDS011;10925;49.102;-0.370;2023-04-01T20:33:37;17.88;;;3.92;;
21527;SDS011;10925;49.102;-0.370;2023-04-01T20:44:19;13.20;;;3.95;;
21527;SDS011;10925;49.102;-0.370;2023-04-01T20:46:50;14.23;;;4.03;;
21527;SDS011;10925;49.102;-0.370;2023-04-01T20:49:23;15.40;;;3.45;;
21527;SDS011;10925;49.102;-0.370;2023-04-01T20:57:12;15.82;;;4.18;;
21527;SDS011;10925;49.102;-0.370;2023-04-01T20:59:46;13.88;;;4.13;;
21527;SDS011;10925;49.102;-0.370;2023-04-01T21:02:29;11.32;;;3.75;;
21527;SDS011;10925;49.102;-0.370;2023-04-01T21:07:41;19.60;;;5.00;;
21527;SDS011;10925;49.102;-0.370;2023-04-01T21:10:18;17.00;;;4.05;;
21527;SDS011;10925;49.102;-0.370;2023-04-01T21:12:48;15.68;;;4.80;;
21527;SDS011;10925;49.102;-0.370;2023-04-01T21:15:19;13.00;;;4.22;;
21527;SDS011;10925;49.102;-0.370;2023-04-01T21:23:02;14.48;;;4.20;;
21527;SDS011;10925;49.102;-0.370;2023-04-01T21:25:34;13.50;;;4.03;;
21527;SDS011;10925;49.102;-0.370;2023-04-01T21:28:09;12.05;;;4.03;;
21527;SDS011;10925;49.102;-0.370;2023-04-01T21:54:27;14.13;;;5.00;;
21527;SDS011;10925;49.102;-0.370;2023-04-01T21:59:49;10.93;;;5.53;;
21527;SDS011;10925;49.102;-0.370;2023-04-01T22:02:27;10.15;;;5.55;;
21527;SDS011;10925;49.102;-0.370;2023-04-01T22:07:36;8.25;;;4.43;;
21527;SDS011;10925;49.102;-0.370;2023-04-01T22:13:19;14.95;;;5.82;;
21527;SDS011;10925;49.102;-0.370;2023-04-01T22:15:48;13.38;;;5.40;;
21527;SDS011;10925;49.102;-0.370;2023-04-01T22:18:22;13.70;;;5.25;;
21527;SDS011;10925;49.102;-0.370;2023-04-01T22:20:59;16.80;;;6.10;;
21527;SDS011;10925;49.102;-0.370;2023-04-01T22:23:50;16.25;;;6.03;;
21527;SDS011;10925;49.102;-0.370;2023-04-01T22:29:02;11.38;;;5.05;;
21527;SDS011;10925;49.102;-0.370;2023-04-01T22:31:42;14.95;;;6.05;;
21527;SDS011;10925;49.102;-0.370;2023-04-01T22:34:14;13.63;;;5.97;;
21527;SDS011;10925;49.102;-0.370;2023-04-01T22:37:00;10.95;;;5.90;;
21527;SDS011;10925;49.102;-0.370;2023-04-01T22:42:21;11.77;;;5.50;;
21527;SDS011;10925;49.102;-0.370;2023-04-01T22:47:30;13.35;;;5.47;;
21527;SDS011;10925;49.102;-0.370;2023-04-01T22:52:56;18.02;;;7.30;;
21527;SDS011;10925;49.102;-0.370;2023-04-01T22:55:28;12.40;;;6.32;;
21527;SDS011;10925;49.102;-0.370;2023-04-01T22:58:08;18.73;;;6.22;;
21527;SDS011;10925;49.102;-0.370;2023-04-01T23:00:37;13.20;;;6.93;;
21527;SDS011;10925;49.102;-0.370;2023-04-01T23:05:36;14.57;;;6.32;;
21527;SDS011;10925;49.102;-0.370;2023-04-01T23:08:22;13.63;;;6.70;;
21527;SDS011;10925;49.102;-0.370;2023-04-01T23:10:52;16.92;;;7.00;;
21527;SDS011;10925;49.102;-0.370;2023-04-01T23:13:39;17.80;;;7.63;;
21527;SDS011;10925;49.102;-0.370;2023-04-01T23:16:07;12.93;;;7.20;;
21527;SDS011;10925;49.102;-0.370;2023-04-01T23:18:35;18.20;;;7.55;;
21527;SDS011;10925;49.102;-0.370;2023-04-01T23:21:09;15.77;;;7.22;;
21527;SDS011;10925;49.102;-0.370;2023-04-01T23:26:25;14.93;;;7.03;;
21527;SDS011;10925;49.102;-0.370;2023-04-01T23:28:55;18.35;;;8.10;;
21527;SDS011;10925;49.102;-0.370;2023-04-01T23:33:53;16.48;;;7.47;;
21527;SDS011;10925;49.102;-0.370;2023-04-01T23:36:21;15.70;;;7.60;;
21527;SDS011;10925;49.102;-0.370;2023-04-01T23:38:48;12.38;;;7.25;;
21527;SDS011;10925;49.102;-0.370;2023-04-01T23:41:26;17.33;;;7.07;;
21527;SDS011;10925;49.102;-0.370;2023-04-01T23:43:57;22.88;;;8.38;;
21527;SDS011;10925;49.102;-0.370;2023-04-01T23:46:24;16.08;;;8.20;;
21527;SDS011;10925;49.102;-0.370;2023-04-01T23:48:52;22.75;;;8.63;;
21527;SDS011;10925;49.102;-0.370;2023-04-01T23:51:23;20.15;;;8.38;;
21527;SDS011;10925;49.102;-0.370;2023-04-01T23:53:58;15.18;;;8.38;;
21527;SDS011;10925;49.102;-0.370;2023-04-01T23:56:42;18.35;;;8.13;;
21527;SDS011;10925;49.102;-0.370;2023-04-01T23:59:18;16.15;;;9.02;;
